Houn Maru — JG5489 — position and weather

sailwx.info

Track history (hours):
 
Tides and Currents Weather Stations Pressure Air Temp Water Temp Dewpoint Dewpoint Depression Visibility Wind Speed Wind Dir Waves Ship Positions

Houn Maru

Last reported at 2018-May-20 05:40 UTC. Time now 2018-May-20 11:31 UTC.
Position N 34°33' E 135°26'.

Length 91 m; draft 4.2 m.

Type: Tanker. MMSI: 431101172.

Date/timePositionNaut miles runAvg speedWind from/ knotsBaromVisibWave heightAir tempDewpointWater temp
2018-May-20 05:40N 34°33' E 135°26'0 1.9
2018-May-20 05:30N 34°33' E 135°25'0 0.8
2018-May-20 05:00N 34°33' E 135°25'3 5.1
2018-May-20 04:29N 34°33' E 135°22'1 3.1
2018-May-20 04:00N 34°33' E 135°20'2 3.6
2018-May-20 03:29N 34°33' E 135°22'3 5.4
2018-May-20 03:00N 34°31' E 135°24'0 0.0
2018-May-18 06:14N 34°31' E 135°24'1 2.8
2018-May-18 06:00N 34°32' E 135°24'2 4.7
2018-May-18 05:30N 34°32' E 135°21'612.6
2018-May-18 05:00N 34°28' E 135°15'510.1
2018-May-18 04:30N 34°24' E 135°12'2 0.5
2018-May-18 00:09N 34°25' E 135°14'0 0.8
2018-May-18 00:01N 34°25' E 135°14'3 5.2
2018-May-17 23:30N 34°24' E 135°11'2 4.0
2018-May-17 23:01N 34°24' E 135°09'0 0.0
2018-May-17 22:24N 34°24' E 135°09'0 0.0
2018-May-17 21:57N 34°24' E 135°09'0 0.0
2018-May-17 21:30N 34°24' E 135°09'0 0.0
2018-May-17 21:00N 34°24' E 135°09'0 0.0
2018-May-17 20:30N 34°24' E 135°09'0 0.0
2018-May-17 20:00N 34°24' E 135°09'0 0.0
2018-May-17 19:30N 34°24' E 135°09'0 0.0
2018-May-17 19:00N 34°24' E 135°09'0 0.0
2018-May-17 18:30N 34°24' E 135°09'0 0.0
2018-May-17 18:00N 34°24' E 135°09'0 0.0
2018-May-17 17:30N 34°24' E 135°09'0 0.0
2018-May-17 17:00N 34°24' E 135°09'0 0.1
2018-May-17 16:30N 34°24' E 135°09'0 0.0
2018-May-17 16:00N 34°24' E 135°09'0 0.1
2018-May-17 15:30N 34°24' E 135°09'0 0.1
2018-May-17 15:00N 34°24' E 135°09'0 0.0
2018-May-17 14:30N 34°24' E 135°09'0 0.0
2018-May-17 14:00N 34°24' E 135°09'0 0.1
2018-May-17 13:30N 34°24' E 135°09'0 0.1
2018-May-17 13:00N 34°24' E 135°09'0 0.0
2018-May-17 12:30N 34°24' E 135°09'0 0.0
2018-May-17 12:00N 34°24' E 135°09'0 0.0
2018-May-17 11:30N 34°24' E 135°09'2 4.7
2018-May-17 11:00N 34°26' E 135°10'611.0
2018-May-17 10:30N 34°30' E 135°15'3 5.2
2018-May-17 09:52N 34°32' E 135°18'0 0.6
2018-May-17 09:30N 34°32' E 135°18'5 9.7
2018-May-17 09:00N 34°33' E 135°24'1 0.1
2018-May-16 22:35N 34°33' E 135°26'0 1.9
2018-May-16 22:30N 34°33' E 135°25'3 5.8
2018-May-16 22:01N 34°33' E 135°22'3 5.3
2018-May-16 21:31N 34°33' E 135°19'0 0.1
2018-May-16 20:55N 34°33' E 135°19'0 0.0
2018-May-16 20:25N 34°33' E 135°19'0 0.1
2018-May-16 19:55N 34°33' E 135°19'0 0.1
2018-May-16 19:25N 34°33' E 135°19'0 0.0
2018-May-16 18:43N 34°33' E 135°19'0 0.0
2018-May-16 18:25N 34°33' E 135°19'0 0.0
2018-May-16 16:49N 34°33' E 135°19'0 0.0
2018-May-16 16:25N 34°33' E 135°19'0 0.0
2018-May-16 15:49N 34°33' E 135°19'0 0.0
2018-May-16 15:25N 34°33' E 135°19'0 0.0
2018-May-16 14:43N 34°33' E 135°19'0 0.0
2018-May-16 14:25N 34°33' E 135°19'0 0.0
2018-May-16 13:43N 34°33' E 135°19'0 0.0
2018-May-16 13:19N 34°33' E 135°19'0 0.0
2018-May-16 12:55N 34°33' E 135°19'0 0.1
2018-May-16 12:25N 34°33' E 135°19'0 0.1
2018-May-16 11:55N 34°33' E 135°19'0 0.1
2018-May-16 11:25N 34°33' E 135°19'0 0.0
2018-May-16 10:49N 34°33' E 135°19'0 0.0
2018-May-16 10:25N 34°33' E 135°19'0 0.0
2018-May-16 09:49N 34°33' E 135°19'0 0.0
2018-May-16 09:25N 34°33' E 135°19'0 0.0
2018-May-16 08:49N 34°33' E 135°19'0 0.0
2018-May-16 08:25N 34°33' E 135°19'0 0.0
2018-May-16 07:49N 34°33' E 135°19'0 0.0
2018-May-16 07:16N 34°33' E 135°19'0 0.0
2018-May-16 06:55N 34°33' E 135°19'0 0.0
2018-May-16 06:25N 34°33' E 135°19'0 0.1
2018-May-16 05:52N 34°33' E 135°19'2 5.5
2018-May-16 05:30N 34°31' E 135°17'612.1
2018-May-16 05:00N 34°27' E 135°12'3 5.8
2018-May-16 04:31N 34°25' E 135°14'1 0.2
2018-May-16 00:16N 34°25' E 135°14'0 1.2
2018-May-16 00:00N 34°25' E 135°14'2 4.5
2018-May-15 23:30N 34°24' E 135°12'2 4.6
2018-May-15 23:01N 34°24' E 135°09'0 0.1
2018-May-15 22:28N 34°24' E 135°09'0 0.0
2018-May-15 21:58N 34°24' E 135°09'0 0.0
2018-May-15 21:28N 34°24' E 135°09'0 0.0
2018-May-15 20:58N 34°24' E 135°09'0 0.0
2018-May-15 20:28N 34°24' E 135°09'0 0.0
2018-May-15 19:58N 34°24' E 135°09'0 0.0
2018-May-15 19:28N 34°24' E 135°09'0 0.0
2018-May-15 18:58N 34°24' E 135°09'0 0.0
2018-May-15 18:28N 34°24' E 135°09'0 0.0
2018-May-15 17:58N 34°24' E 135°09'0 0.0
2018-May-15 17:28N 34°24' E 135°09'0 0.0
2018-May-15 16:58N 34°24' E 135°09'0 0.0
2018-May-15 16:28N 34°24' E 135°09'0 0.0
2018-May-15 15:58N 34°24' E 135°09'0 0.0
2018-May-15 15:28N 34°24' E 135°09'0 0.1
2018-May-15 14:58N 34°24' E 135°09'0 0.8
2018-May-15 14:30N 34°24' E 135°09'511.1
2018-May-15 14:01N 34°29' E 135°06'510.7
2018-May-15 13:31N 34°34' E 135°04'4 8.9
2018-May-15 13:01N 34°37' E 134°60'510.9
2018-May-15 12:30N 34°34' E 134°54'4 8.6
2018-May-15 12:00N 34°32' E 134°49'5 9.9
2018-May-15 11:30N 34°31' E 134°43'510.7
2018-May-15 11:00N 34°29' E 134°37'611.5
2018-May-15 10:31N 34°27' E 134°31'611.0
2018-May-15 10:00N 34°25' E 134°24'510.9
2018-May-15 09:30N 34°24' E 134°18'810.3
2018-May-15 08:43N 34°26' E 134°08'1510.7
2018-May-15 07:18N 34°23' E 133°50'3 8.0
2018-May-15 06:59N 34°24' E 133°48'15 0.8
2018-May-14 11:55N 34°27' E 134°05'813.8
2018-May-14 11:20N 34°24' E 134°14'513.5
2018-May-14 10:59N 34°25' E 134°20'613.1
2018-May-14 10:30N 34°27' E 134°27'713.1
2018-May-14 10:01N 34°29' E 134°34'713.5
2018-May-14 09:31N 34°32' E 134°42'714.4
2018-May-14 09:01N 34°35' E 134°50'714.7
2018-May-14 08:30N 34°37' E 134°58'612.4
2018-May-14 08:00N 34°35' E 135°05'612.3
2018-May-14 07:30N 34°29' E 135°08'612.5
2018-May-14 07:00N 34°24' E 135°12'2 4.1
2018-May-14 06:30N 34°25' E 135°14'0 0.0
2018-May-14 05:59N 34°25' E 135°14'0 0.0
2018-May-14 05:29N 34°25' E 135°14'0 0.0
2018-May-14 04:59N 34°25' E 135°14'0 0.0
2018-May-14 04:29N 34°25' E 135°14'0 0.0
2018-May-14 03:59N 34°25' E 135°14'0 0.0
2018-May-14 03:29N 34°25' E 135°14'0 0.0
2018-May-14 02:59N 34°25' E 135°14'0 0.0
2018-May-14 02:29N 34°25' E 135°14'0 0.0
2018-May-14 01:59N 34°25' E 135°14'0 0.5
2018-May-14 01:30N 34°25' E 135°14'2 4.3
2018-May-14 01:00N 34°24' E 135°12'2 4.6
2018-May-14 00:30N 34°24' E 135°09'0 0.2
2018-May-14 00:00N 34°24' E 135°09'0 0.1
2018-May-13 23:30N 34°24' E 135°09'0 0.1
2018-May-13 23:00N 34°24' E 135°09'0 0.1
2018-May-13 22:30N 34°24' E 135°09'0 0.1
2018-May-13 22:00N 34°24' E 135°09'0 0.0
2018-May-13 21:30N 34°24' E 135°09'0 0.1
2018-May-13 21:00N 34°24' E 135°09'0 0.1
2018-May-13 20:30N 34°24' E 135°09'0 0.0
2018-May-13 20:00N 34°24' E 135°09'0 0.1
2018-May-13 19:30N 34°24' E 135°09'0 0.1
2018-May-13 19:00N 34°24' E 135°09'0 0.0
2018-May-13 18:30N 34°24' E 135°09'0 0.0
2018-May-13 18:00N 34°24' E 135°09'0 0.0
2018-May-13 17:30N 34°24' E 135°09'0 0.0
2018-May-13 17:00N 34°24' E 135°09'0 0.0
2018-May-13 16:30N 34°24' E 135°09'0 0.0
2018-May-13 16:00N 34°24' E 135°09'0 0.0
2018-May-13 15:30N 34°24' E 135°09'1 1.9
2018-May-13 15:00N 34°25' E 135°08'611.6
2018-May-13 14:30N 34°30' E 135°06'612.4
2018-May-13 14:00N 34°36' E 135°03'611.3
2018-May-13 13:30N 34°36' E 134°56'510.9
2018-May-13 13:00N 34°33' E 134°50'510.8
2018-May-13 12:30N 34°31' E 134°44'611.2
2018-May-13 12:00N 34°29' E 134°38'611.6
2018-May-13 11:30N 34°27' E 134°31'611.6
2018-May-13 11:00N 34°25' E 134°24'611.2
2018-May-13 10:29N 34°23' E 134°18'8 9.8
2018-May-13 09:38N 34°26' E 134°08'10 0.4
2018-May-12 07:21N 34°25' E 133°56'1413.1
2018-May-12 06:17N 34°25' E 134°13'413.0
2018-May-12 05:58N 34°25' E 134°18'612.6
2018-May-12 05:30N 34°26' E 134°25'612.5
2018-May-12 05:00N 34°29' E 134°32'612.2
2018-May-12 04:30N 34°31' E 134°39'612.0
2018-May-12 04:00N 34°33' E 134°46'611.3
2018-May-12 03:30N 34°35' E 134°52'510.2
2018-May-12 03:00N 34°37' E 134°58'4 8.9
2018-May-12 02:30N 34°37' E 135°03'510.7
2018-May-12 02:00N 34°35' E 135°09'612.3
2018-May-12 01:30N 34°34' E 135°17'612.1
2018-May-12 01:00N 34°32' E 135°24'1 2.7
2018-May-12 00:29N 34°31' E 135°24'0 0.0
2018-May-11 23:59N 34°31' E 135°24'0 0.0
2018-May-11 23:29N 34°31' E 135°24'0 0.0
2018-May-11 22:59N 34°31' E 135°24'0 0.0
2018-May-11 22:29N 34°31' E 135°24'0 0.0
2018-May-11 21:59N 34°31' E 135°24'0 0.0
2018-May-11 21:29N 34°31' E 135°24'0 0.0
2018-May-11 20:59N 34°31' E 135°24'0 0.0
2018-May-11 20:29N 34°31' E 135°24'0 0.0
2018-May-11 19:59N 34°31' E 135°24'0 0.0
2018-May-11 19:29N 34°31' E 135°24'0 0.0
2018-May-11 18:59N 34°31' E 135°24'0 0.0
2018-May-11 18:26N 34°31' E 135°24'0 0.0
2018-May-11 17:59N 34°31' E 135°24'0 0.0
2018-May-11 17:29N 34°31' E 135°24'0 0.0
2018-May-11 16:59N 34°31' E 135°24'0 0.0
2018-May-11 16:29N 34°31' E 135°24'0 0.0
2018-May-11 15:59N 34°31' E 135°24'0 0.0
2018-May-11 15:29N 34°31' E 135°24'0 0.0
2018-May-11 14:59N 34°31' E 135°24'0 0.0
2018-May-11 14:29N 34°31' E 135°24'0 0.0
2018-May-11 13:59N 34°31' E 135°24'0 0.0
2018-May-11 13:29N 34°31' E 135°24'0 0.0
2018-May-11 12:59N 34°31' E 135°24'0 0.0
2018-May-11 12:29N 34°31' E 135°24'0 0.0
2018-May-11 11:59N 34°31' E 135°24'0 0.0
2018-May-11 11:29N 34°31' E 135°24'0 0.0
2018-May-11 10:59N 34°31' E 135°24'0 0.0
2018-May-11 10:26N 34°31' E 135°24'0 0.0
2018-May-11 09:59N 34°31' E 135°24'0 0.0
2018-May-11 09:29N 34°31' E 135°24'0 0.0
2018-May-11 08:59N 34°31' E 135°24'0 0.0
2018-May-11 08:29N 34°31' E 135°24'0 0.0
2018-May-11 07:59N 34°31' E 135°24'0 0.0
2018-May-11 07:29N 34°31' E 135°24'0 0.0
2018-May-11 06:59N 34°31' E 135°24'0 0.0
2018-May-11 06:29N 34°31' E 135°24'0 0.0
2018-May-11 05:59N 34°31' E 135°24'0 1.0
2018-May-11 05:30N 34°31' E 135°24'5 9.4
2018-May-11 05:00N 34°31' E 135°19'612.1
2018-May-11 04:30N 34°27' E 135°13'3 5.2
2018-May-11 04:00N 34°25' E 135°14'1 1.1
2018-May-11 03:28N 34°25' E 135°14'0 0.0
2018-May-11 02:55N 34°25' E 135°14'0 0.0
2018-May-11 02:28N 34°25' E 135°14'0 0.0
2018-May-11 01:58N 34°25' E 135°14'0 0.0
2018-May-11 01:28N 34°25' E 135°14'0 0.0
2018-May-11 00:58N 34°25' E 135°14'0 0.0
2018-May-11 00:28N 34°25' E 135°14'0 0.4
2018-May-11 00:00N 34°25' E 135°14'2 3.7
2018-May-10 23:30N 34°24' E 135°13'5 9.2
2018-May-10 23:01N 34°28' E 135°13'610.8
2018-May-10 22:30N 34°32' E 135°18'0 0.4
2018-May-10 22:00N 34°32' E 135°18'0 0.0
2018-May-10 21:30N 34°32' E 135°18'0 0.0
2018-May-10 21:00N 34°32' E 135°18'0 0.0
2018-May-10 20:30N 34°32' E 135°18'0 0.0
2018-May-10 19:57N 34°32' E 135°18'0 0.0
2018-May-10 19:30N 34°32' E 135°18'0 0.0
2018-May-10 19:00N 34°32' E 135°18'0 0.0
2018-May-10 18:30N 34°32' E 135°18'0 0.0
2018-May-10 18:00N 34°32' E 135°18'0 0.0
2018-May-10 17:30N 34°32' E 135°18'0 0.0
2018-May-10 17:00N 34°32' E 135°18'0 0.0
2018-May-10 16:30N 34°32' E 135°18'0 0.0
2018-May-10 16:00N 34°32' E 135°18'0 0.0
2018-May-10 15:30N 34°32' E 135°18'0 0.0
2018-May-10 15:00N 34°32' E 135°18'0 0.0
2018-May-10 14:30N 34°32' E 135°18'0 0.0
2018-May-10 13:57N 34°32' E 135°18'0 0.0
2018-May-10 13:30N 34°32' E 135°18'0 0.0
2018-May-10 12:57N 34°32' E 135°18'0 0.0
2018-May-10 12:30N 34°32' E 135°18'0 0.0
2018-May-10 12:00N 34°32' E 135°18'0 0.0
2018-May-10 11:27N 34°32' E 135°18'0 0.0
2018-May-10 11:00N 34°32' E 135°18'0 0.0
2018-May-10 10:30N 34°32' E 135°18'0 0.0
2018-May-10 10:00N 34°32' E 135°18'0 0.0
2018-May-10 09:30N 34°32' E 135°18'0 0.0
2018-May-10 09:00N 34°32' E 135°18'1 1.5
2018-May-10 08:30N 34°32' E 135°19'5 9.6
2018-May-10 08:00N 34°33' E 135°25'1 1.4
2018-May-10 07:28N 34°33' E 135°26'0 0.0
2018-May-10 06:58N 34°33' E 135°26'0 0.0
2018-May-10 06:28N 34°33' E 135°26'0 0.0
2018-May-10 05:58N 34°33' E 135°26'  
Track history (hours):
 
Tides and Currents Weather Stations Pressure Air Temp Water Temp Dewpoint Dewpoint Depression Visibility Wind Speed Wind Dir Waves Ship Positions

Houn Maru

Last reported at 2018-May-20 05:40 UTC. Time now 2018-May-20 11:31 UTC.
Position N 34°33' E 135°26'.

Length 91 m; draft 4.2 m.

Type: Tanker. MMSI: 431101172.

Date/timePositionNaut miles runAvg speedWind from/ knotsBaromVisibWave heightAir tempDewpointWater temp
2018-May-20 05:40N 34°33' E 135°26'0 1.9
2018-May-20 05:30N 34°33' E 135°25'0 0.8
2018-May-20 05:00N 34°33' E 135°25'3 5.1
2018-May-20 04:29N 34°33' E 135°22'1 3.1
2018-May-20 04:00N 34°33' E 135°20'2 3.6
2018-May-20 03:29N 34°33' E 135°22'3 5.4
2018-May-20 03:00N 34°31' E 135°24'0 0.0
2018-May-18 06:14N 34°31' E 135°24'1 2.8
2018-May-18 06:00N 34°32' E 135°24'2 4.7
2018-May-18 05:30N 34°32' E 135°21'612.6
2018-May-18 05:00N 34°28' E 135°15'510.1
2018-May-18 04:30N 34°24' E 135°12'2 0.5
2018-May-18 00:09N 34°25' E 135°14'0 0.8
2018-May-18 00:01N 34°25' E 135°14'3 5.2
2018-May-17 23:30N 34°24' E 135°11'2 4.0
2018-May-17 23:01N 34°24' E 135°09'0 0.0
2018-May-17 22:24N 34°24' E 135°09'0 0.0
2018-May-17 21:57N 34°24' E 135°09'0 0.0
2018-May-17 21:30N 34°24' E 135°09'0 0.0
2018-May-17 21:00N 34°24' E 135°09'0 0.0
2018-May-17 20:30N 34°24' E 135°09'0 0.0
2018-May-17 20:00N 34°24' E 135°09'0 0.0
2018-May-17 19:30N 34°24' E 135°09'0 0.0
2018-May-17 19:00N 34°24' E 135°09'0 0.0
2018-May-17 18:30N 34°24' E 135°09'0 0.0
2018-May-17 18:00N 34°24' E 135°09'0 0.0
2018-May-17 17:30N 34°24' E 135°09'0 0.0
2018-May-17 17:00N 34°24' E 135°09'0 0.1
2018-May-17 16:30N 34°24' E 135°09'0 0.0
2018-May-17 16:00N 34°24' E 135°09'0 0.1
2018-May-17 15:30N 34°24' E 135°09'0 0.1
2018-May-17 15:00N 34°24' E 135°09'0 0.0
2018-May-17 14:30N 34°24' E 135°09'0 0.0
2018-May-17 14:00N 34°24' E 135°09'0 0.1
2018-May-17 13:30N 34°24' E 135°09'0 0.1
2018-May-17 13:00N 34°24' E 135°09'0 0.0
2018-May-17 12:30N 34°24' E 135°09'0 0.0
2018-May-17 12:00N 34°24' E 135°09'0 0.0
2018-May-17 11:30N 34°24' E 135°09'2 4.7
2018-May-17 11:00N 34°26' E 135°10'611.0
2018-May-17 10:30N 34°30' E 135°15'3 5.2
2018-May-17 09:52N 34°32' E 135°18'0 0.6
2018-May-17 09:30N 34°32' E 135°18'5 9.7
2018-May-17 09:00N 34°33' E 135°24'1 0.1
2018-May-16 22:35N 34°33' E 135°26'0 1.9
2018-May-16 22:30N 34°33' E 135°25'3 5.8
2018-May-16 22:01N 34°33' E 135°22'3 5.3
2018-May-16 21:31N 34°33' E 135°19'0 0.1
2018-May-16 20:55N 34°33' E 135°19'0 0.0
2018-May-16 20:25N 34°33' E 135°19'0 0.1
2018-May-16 19:55N 34°33' E 135°19'0 0.1
2018-May-16 19:25N 34°33' E 135°19'0 0.0
2018-May-16 18:43N 34°33' E 135°19'0 0.0
2018-May-16 18:25N 34°33' E 135°19'0 0.0
2018-May-16 16:49N 34°33' E 135°19'0 0.0
2018-May-16 16:25N 34°33' E 135°19'0 0.0
2018-May-16 15:49N 34°33' E 135°19'0 0.0
2018-May-16 15:25N 34°33' E 135°19'0 0.0
2018-May-16 14:43N 34°33' E 135°19'0 0.0
2018-May-16 14:25N 34°33' E 135°19'0 0.0
2018-May-16 13:43N 34°33' E 135°19'0 0.0
2018-May-16 13:19N 34°33' E 135°19'0 0.0
2018-May-16 12:55N 34°33' E 135°19'0 0.1
2018-May-16 12:25N 34°33' E 135°19'0 0.1
2018-May-16 11:55N 34°33' E 135°19'0 0.1
2018-May-16 11:25N 34°33' E 135°19'0 0.0
2018-May-16 10:49N 34°33' E 135°19'0 0.0
2018-May-16 10:25N 34°33' E 135°19'0 0.0
2018-May-16 09:49N 34°33' E 135°19'0 0.0
2018-May-16 09:25N 34°33' E 135°19'0 0.0
2018-May-16 08:49N 34°33' E 135°19'0 0.0
2018-May-16 08:25N 34°33' E 135°19'0 0.0
2018-May-16 07:49N 34°33' E 135°19'0 0.0
2018-May-16 07:16N 34°33' E 135°19'0 0.0
2018-May-16 06:55N 34°33' E 135°19'0 0.0
2018-May-16 06:25N 34°33' E 135°19'0 0.1
2018-May-16 05:52N 34°33' E 135°19'2 5.5
2018-May-16 05:30N 34°31' E 135°17'612.1
2018-May-16 05:00N 34°27' E 135°12'3 5.8
2018-May-16 04:31N 34°25' E 135°14'1 0.2
2018-May-16 00:16N 34°25' E 135°14'0 1.2
2018-May-16 00:00N 34°25' E 135°14'2 4.5
2018-May-15 23:30N 34°24' E 135°12'2 4.6
2018-May-15 23:01N 34°24' E 135°09'0 0.1
2018-May-15 22:28N 34°24' E 135°09'0 0.0
2018-May-15 21:58N 34°24' E 135°09'0 0.0
2018-May-15 21:28N 34°24' E 135°09'0 0.0
2018-May-15 20:58N 34°24' E 135°09'0 0.0
2018-May-15 20:28N 34°24' E 135°09'0 0.0
2018-May-15 19:58N 34°24' E 135°09'0 0.0
2018-May-15 19:28N 34°24' E 135°09'0 0.0
2018-May-15 18:58N 34°24' E 135°09'0 0.0
2018-May-15 18:28N 34°24' E 135°09'0 0.0
2018-May-15 17:58N 34°24' E 135°09'0 0.0
2018-May-15 17:28N 34°24' E 135°09'0 0.0
2018-May-15 16:58N 34°24' E 135°09'0 0.0
2018-May-15 16:28N 34°24' E 135°09'0 0.0
2018-May-15 15:58N 34°24' E 135°09'0 0.0
2018-May-15 15:28N 34°24' E 135°09'0 0.1
2018-May-15 14:58N 34°24' E 135°09'0 0.8
2018-May-15 14:30N 34°24' E 135°09'511.1
2018-May-15 14:01N 34°29' E 135°06'510.7
2018-May-15 13:31N 34°34' E 135°04'4 8.9
2018-May-15 13:01N 34°37' E 134°60'510.9
2018-May-15 12:30N 34°34' E 134°54'4 8.6
2018-May-15 12:00N 34°32' E 134°49'5 9.9
2018-May-15 11:30N 34°31' E 134°43'510.7
2018-May-15 11:00N 34°29' E 134°37'611.5
2018-May-15 10:31N 34°27' E 134°31'611.0
2018-May-15 10:00N 34°25' E 134°24'510.9
2018-May-15 09:30N 34°24' E 134°18'810.3
2018-May-15 08:43N 34°26' E 134°08'1510.7
2018-May-15 07:18N 34°23' E 133°50'3 8.0
2018-May-15 06:59N 34°24' E 133°48'15 0.8
2018-May-14 11:55N 34°27' E 134°05'813.8
2018-May-14 11:20N 34°24' E 134°14'513.5
2018-May-14 10:59N 34°25' E 134°20'613.1
2018-May-14 10:30N 34°27' E 134°27'713.1
2018-May-14 10:01N 34°29' E 134°34'713.5
2018-May-14 09:31N 34°32' E 134°42'714.4
2018-May-14 09:01N 34°35' E 134°50'714.7
2018-May-14 08:30N 34°37' E 134°58'612.4
2018-May-14 08:00N 34°35' E 135°05'612.3
2018-May-14 07:30N 34°29' E 135°08'612.5
2018-May-14 07:00N 34°24' E 135°12'2 4.1
2018-May-14 06:30N 34°25' E 135°14'0 0.0
2018-May-14 05:59N 34°25' E 135°14'0 0.0
2018-May-14 05:29N 34°25' E 135°14'0 0.0
2018-May-14 04:59N 34°25' E 135°14'0 0.0
2018-May-14 04:29N 34°25' E 135°14'0 0.0
2018-May-14 03:59N 34°25' E 135°14'0 0.0
2018-May-14 03:29N 34°25' E 135°14'0 0.0
2018-May-14 02:59N 34°25' E 135°14'0 0.0
2018-May-14 02:29N 34°25' E 135°14'0 0.0
2018-May-14 01:59N 34°25' E 135°14'0 0.5
2018-May-14 01:30N 34°25' E 135°14'2 4.3
2018-May-14 01:00N 34°24' E 135°12'2 4.6
2018-May-14 00:30N 34°24' E 135°09'0 0.2
2018-May-14 00:00N 34°24' E 135°09'0 0.1
2018-May-13 23:30N 34°24' E 135°09'0 0.1
2018-May-13 23:00N 34°24' E 135°09'0 0.1
2018-May-13 22:30N 34°24' E 135°09'0 0.1
2018-May-13 22:00N 34°24' E 135°09'0 0.0
2018-May-13 21:30N 34°24' E 135°09'0 0.1
2018-May-13 21:00N 34°24' E 135°09'0 0.1
2018-May-13 20:30N 34°24' E 135°09'0 0.0
2018-May-13 20:00N 34°24' E 135°09'0 0.1
2018-May-13 19:30N 34°24' E 135°09'0 0.1
2018-May-13 19:00N 34°24' E 135°09'0 0.0
2018-May-13 18:30N 34°24' E 135°09'0 0.0
2018-May-13 18:00N 34°24' E 135°09'0 0.0
2018-May-13 17:30N 34°24' E 135°09'0 0.0
2018-May-13 17:00N 34°24' E 135°09'0 0.0
2018-May-13 16:30N 34°24' E 135°09'0 0.0
2018-May-13 16:00N 34°24' E 135°09'0 0.0
2018-May-13 15:30N 34°24' E 135°09'1 1.9
2018-May-13 15:00N 34°25' E 135°08'611.6
2018-May-13 14:30N 34°30' E 135°06'612.4
2018-May-13 14:00N 34°36' E 135°03'611.3
2018-May-13 13:30N 34°36' E 134°56'510.9
2018-May-13 13:00N 34°33' E 134°50'510.8
2018-May-13 12:30N 34°31' E 134°44'611.2
2018-May-13 12:00N 34°29' E 134°38'611.6
2018-May-13 11:30N 34°27' E 134°31'611.6
2018-May-13 11:00N 34°25' E 134°24'611.2
2018-May-13 10:29N 34°23' E 134°18'8 9.8
2018-May-13 09:38N 34°26' E 134°08'10 0.4
2018-May-12 07:21N 34°25' E 133°56'1413.1
2018-May-12 06:17N 34°25' E 134°13'413.0
2018-May-12 05:58N 34°25' E 134°18'612.6
2018-May-12 05:30N 34°26' E 134°25'612.5
2018-May-12 05:00N 34°29' E 134°32'612.2
2018-May-12 04:30N 34°31' E 134°39'612.0
2018-May-12 04:00N 34°33' E 134°46'611.3
2018-May-12 03:30N 34°35' E 134°52'510.2
2018-May-12 03:00N 34°37' E 134°58'4 8.9
2018-May-12 02:30N 34°37' E 135°03'510.7
2018-May-12 02:00N 34°35' E 135°09'612.3
2018-May-12 01:30N 34°34' E 135°17'612.1
2018-May-12 01:00N 34°32' E 135°24'1 2.7
2018-May-12 00:29N 34°31' E 135°24'0 0.0
2018-May-11 23:59N 34°31' E 135°24'0 0.0
2018-May-11 23:29N 34°31' E 135°24'0 0.0
2018-May-11 22:59N 34°31' E 135°24'0 0.0
2018-May-11 22:29N 34°31' E 135°24'0 0.0
2018-May-11 21:59N 34°31' E 135°24'0 0.0
2018-May-11 21:29N 34°31' E 135°24'0 0.0
2018-May-11 20:59N 34°31' E 135°24'0 0.0
2018-May-11 20:29N 34°31' E 135°24'0 0.0
2018-May-11 19:59N 34°31' E 135°24'0 0.0
2018-May-11 19:29N 34°31' E 135°24'0 0.0
2018-May-11 18:59N 34°31' E 135°24'0 0.0
2018-May-11 18:26N 34°31' E 135°24'0 0.0
2018-May-11 17:59N 34°31' E 135°24'0 0.0
2018-May-11 17:29N 34°31' E 135°24'0 0.0
2018-May-11 16:59N 34°31' E 135°24'0 0.0
2018-May-11 16:29N 34°31' E 135°24'0 0.0
2018-May-11 15:59N 34°31' E 135°24'0 0.0
2018-May-11 15:29N 34°31' E 135°24'0 0.0
2018-May-11 14:59N 34°31' E 135°24'0 0.0
2018-May-11 14:29N 34°31' E 135°24'0 0.0
2018-May-11 13:59N 34°31' E 135°24'0 0.0
2018-May-11 13:29N 34°31' E 135°24'0 0.0
2018-May-11 12:59N 34°31' E 135°24'0 0.0
2018-May-11 12:29N 34°31' E 135°24'0 0.0
2018-May-11 11:59N 34°31' E 135°24'0 0.0
2018-May-11 11:29N 34°31' E 135°24'0 0.0
2018-May-11 10:59N 34°31' E 135°24'0 0.0
2018-May-11 10:26N 34°31' E 135°24'0 0.0
2018-May-11 09:59N 34°31' E 135°24'0 0.0
2018-May-11 09:29N 34°31' E 135°24'0 0.0
2018-May-11 08:59N 34°31' E 135°24'0 0.0
2018-May-11 08:29N 34°31' E 135°24'0 0.0
2018-May-11 07:59N 34°31' E 135°24'0 0.0
2018-May-11 07:29N 34°31' E 135°24'0 0.0
2018-May-11 06:59N 34°31' E 135°24'0 0.0
2018-May-11 06:29N 34°31' E 135°24'0 0.0
2018-May-11 05:59N 34°31' E 135°24'0 1.0
2018-May-11 05:30N 34°31' E 135°24'5 9.4
2018-May-11 05:00N 34°31' E 135°19'612.1
2018-May-11 04:30N 34°27' E 135°13'3 5.2
2018-May-11 04:00N 34°25' E 135°14'1 1.1
2018-May-11 03:28N 34°25' E 135°14'0 0.0
2018-May-11 02:55N 34°25' E 135°14'0 0.0
2018-May-11 02:28N 34°25' E 135°14'0 0.0
2018-May-11 01:58N 34°25' E 135°14'0 0.0
2018-May-11 01:28N 34°25' E 135°14'0 0.0
2018-May-11 00:58N 34°25' E 135°14'0 0.0
2018-May-11 00:28N 34°25' E 135°14'0 0.4
2018-May-11 00:00N 34°25' E 135°14'2 3.7
2018-May-10 23:30N 34°24' E 135°13'5 9.2
2018-May-10 23:01N 34°28' E 135°13'610.8
2018-May-10 22:30N 34°32' E 135°18'0 0.4
2018-May-10 22:00N 34°32' E 135°18'0 0.0
2018-May-10 21:30N 34°32' E 135°18'0 0.0
2018-May-10 21:00N 34°32' E 135°18'0 0.0
2018-May-10 20:30N 34°32' E 135°18'0 0.0
2018-May-10 19:57N 34°32' E 135°18'0 0.0
2018-May-10 19:30N 34°32' E 135°18'0 0.0
2018-May-10 19:00N 34°32' E 135°18'0 0.0
2018-May-10 18:30N 34°32' E 135°18'0 0.0
2018-May-10 18:00N 34°32' E 135°18'0 0.0
2018-May-10 17:30N 34°32' E 135°18'0 0.0
2018-May-10 17:00N 34°32' E 135°18'0 0.0
2018-May-10 16:30N 34°32' E 135°18'0 0.0
2018-May-10 16:00N 34°32' E 135°18'0 0.0
2018-May-10 15:30N 34°32' E 135°18'0 0.0
2018-May-10 15:00N 34°32' E 135°18'0 0.0
2018-May-10 14:30N 34°32' E 135°18'0 0.0
2018-May-10 13:57N 34°32' E 135°18'0 0.0
2018-May-10 13:30N 34°32' E 135°18'0 0.0
2018-May-10 12:57N 34°32' E 135°18'0 0.0
2018-May-10 12:30N 34°32' E 135°18'0 0.0
2018-May-10 12:00N 34°32' E 135°18'0 0.0
2018-May-10 11:27N 34°32' E 135°18'0 0.0
2018-May-10 11:00N 34°32' E 135°18'0 0.0
2018-May-10 10:30N 34°32' E 135°18'0 0.0
2018-May-10 10:00N 34°32' E 135°18'0 0.0
2018-May-10 09:30N 34°32' E 135°18'0 0.0
2018-May-10 09:00N 34°32' E 135°18'1 1.5
2018-May-10 08:30N 34°32' E 135°19'5 9.6
2018-May-10 08:00N 34°33' E 135°25'1 1.4
2018-May-10 07:28N 34°33' E 135°26'0 0.0
2018-May-10 06:58N 34°33' E 135°26'0 0.0
2018-May-10 06:28N 34°33' E 135°26'0 0.0
2018-May-10 05:58N 34°33' E 135°26'  

Dump ship's entire track history